Etusivu
METAR-TAF:

METAR-TAF

Lentoasemat :

Machala, Ecuador

Leveyspiiri: 03-26-07S, Pituuspiiri: 079-58-40W, korkeus merenpinnasta: 52 m

Tämänhetkinen sää

Tämä raportti tehtiin 1 tunti ja 2 minuuttia sitten, kello 21.00 UTC
Tuuli 9 kn luoteesta
Lämpötila 32°C
Kosteus 52%
Ilmanpaine 1007 hPa
Näkyvyys 10 km tai enemmän
Hajonneita pilviä 8000 ft:n korkeudessa

METAR: SERO 122100Z 32009KT 9999 BKN080 32/21 Q1007

Aika: 17:02 (22:02 UTC)


TAF: puuttuu

Säähavainnot ja -ennusteet yli 4000 lentoasemalta (METAR- ja TAF-raportit).

Käytössä olevat sääasemat on merkitty karttaan keltaisilla ja punaisilla pisteillä.

Aseta hiiri pisteen päälle nähdäksesi sääaseman nimen.

Klikkaa sitten nähdäksesi säähavainnot ja -ennusteet.

Kartan vaihtaminen: klikkaa mustalla rastilla varustettuja vihreitä pisteitä, niin voit zoomata sisään; viivalla varustettua vihreää pistettä, niin voit zoomata ulos tai vihreitä nuolia, niin pääset viereisille kartoille.


METAR-TAF: